sensor_id;sensor_type;location;lat;lon;timestamp;pressure;altitude;pressure_sealevel;temperature;humidity
10474;BME280;5284;50.446;7.904;2023-04-26T00:02:57;98569.97;;;3.00;100.00
10474;BME280;5284;50.446;7.904;2023-04-26T00:08:03;98580.13;;;2.91;100.00
10474;BME280;5284;50.446;7.904;2023-04-26T00:13:06;98586.09;;;2.95;100.00
10474;BME280;5284;50.446;7.904;2023-04-26T00:18:08;98585.63;;;2.87;100.00
10474;BME280;5284;50.446;7.904;2023-04-26T00:23:14;98582.16;;;2.86;100.00
10474;BME280;5284;50.446;7.904;2023-04-26T00:28:17;98593.53;;;2.87;100.00
10474;BME280;5284;50.446;7.904;2023-04-26T00:33:21;98587.88;;;2.94;100.00
10474;BME280;5284;50.446;7.904;2023-04-26T00:38:25;98587.78;;;2.96;100.00
10474;BME280;5284;50.446;7.904;2023-04-26T00:43:28;98590.91;;;2.87;100.00
10474;BME280;5284;50.446;7.904;2023-04-26T00:48:31;98581.41;;;2.84;100.00
10474;BME280;5284;50.446;7.904;2023-04-26T00:53:36;98584.25;;;2.80;100.00
10474;BME280;5284;50.446;7.904;2023-04-26T00:58:39;98582.84;;;2.74;100.00
10474;BME280;5284;50.446;7.904;2023-04-26T01:03:42;98579.72;;;2.66;100.00
10474;BME280;5284;50.446;7.904;2023-04-26T01:08:50;98578.38;;;2.59;100.00
10474;BME280;5284;50.446;7.904;2023-04-26T01:13:55;98573.91;;;2.44;100.00
10474;BME280;5284;50.446;7.904;2023-04-26T01:19:06;98570.81;;;2.36;100.00
10474;BME280;5284;50.446;7.904;2023-04-26T01:24:12;98583.34;;;2.31;100.00
10474;BME280;5284;50.446;7.904;2023-04-26T01:29:16;98584.84;;;2.20;100.00
10474;BME280;5284;50.446;7.904;2023-04-26T01:34:19;98581.97;;;2.24;100.00
10474;BME280;5284;50.446;7.904;2023-04-26T01:39:23;98587.63;;;2.17;100.00
10474;BME280;5284;50.446;7.904;2023-04-26T01:44:26;98587.00;;;2.12;100.00
10474;BME280;5284;50.446;7.904;2023-04-26T01:49:29;98583.38;;;1.97;100.00
10474;BME280;5284;50.446;7.904;2023-04-26T01:54:33;98583.00;;;1.88;100.00
10474;BME280;5284;50.446;7.904;2023-04-26T01:59:36;98581.53;;;1.82;100.00
10474;BME280;5284;50.446;7.904;2023-04-26T02:04:38;98580.97;;;1.76;100.00
10474;BME280;5284;50.446;7.904;2023-04-26T02:09:43;98578.59;;;1.71;100.00
10474;BME280;5284;50.446;7.904;2023-04-26T02:14:46;98564.66;;;1.69;100.00
10474;BME280;5284;50.446;7.904;2023-04-26T02:19:49;98569.22;;;1.66;100.00
10474;BME280;5284;50.446;7.904;2023-04-26T02:24:53;98553.75;;;1.60;100.00
10474;BME280;5284;50.446;7.904;2023-04-26T02:30:01;98565.34;;;1.56;100.00
10474;BME280;5284;50.446;7.904;2023-04-26T02:35:04;98567.22;;;1.54;100.00
10474;BME280;5284;50.446;7.904;2023-04-26T02:40:10;98571.69;;;1.34;100.00
10474;BME280;5284;50.446;7.904;2023-04-26T02:45:14;98573.94;;;1.24;100.00
10474;BME280;5284;50.446;7.904;2023-04-26T02:50:17;98579.09;;;1.26;100.00
10474;BME280;5284;50.446;7.904;2023-04-26T02:55:22;98575.53;;;1.27;100.00
10474;BME280;5284;50.446;7.904;2023-04-26T03:00:25;98575.63;;;1.25;100.00
10474;BME280;5284;50.446;7.904;2023-04-26T03:05:29;98574.28;;;1.17;100.00
10474;BME280;5284;50.446;7.904;2023-04-26T03:10:33;98573.22;;;1.21;100.00
10474;BME280;5284;50.446;7.904;2023-04-26T03:15:36;98575.50;;;1.10;100.00
10474;BME280;5284;50.446;7.904;2023-04-26T03:20:39;98574.56;;;1.11;100.00
10474;BME280;5284;50.446;7.904;2023-04-26T03:25:44;98577.22;;;1.11;100.00
10474;BME280;5284;50.446;7.904;2023-04-26T03:30:47;98572.16;;;1.06;100.00
10474;BME280;5284;50.446;7.904;2023-04-26T03:35:51;98569.63;;;1.05;100.00
10474;BME280;5284;50.446;7.904;2023-04-26T03:40:55;98568.97;;;1.00;100.00
10474;BME280;5284;50.446;7.904;2023-04-26T03:45:59;98571.88;;;0.94;100.00
10474;BME280;5284;50.446;7.904;2023-04-26T03:51:02;98563.38;;;0.89;100.00
10474;BME280;5284;50.446;7.904;2023-04-26T03:56:07;98562.53;;;0.88;100.00
10474;BME280;5284;50.446;7.904;2023-04-26T04:01:11;98564.44;;;0.85;100.00
10474;BME280;5284;50.446;7.904;2023-04-26T04:06:14;98564.91;;;0.74;100.00
10474;BME280;5284;50.446;7.904;2023-04-26T04:11:19;98568.69;;;0.69;100.00
10474;BME280;5284;50.446;7.904;2023-04-26T04:16:21;98564.28;;;0.69;100.00
10474;BME280;5284;50.446;7.904;2023-04-26T04:21:24;98575.13;;;0.62;100.00
10474;BME280;5284;50.446;7.904;2023-04-26T04:26:30;98584.91;;;0.58;100.00
10474;BME280;5284;50.446;7.904;2023-04-26T04:31:33;98590.03;;;0.61;100.00
10474;BME280;5284;50.446;7.904;2023-04-26T04:36:37;98594.25;;;0.64;100.00
10474;BME280;5284;50.446;7.904;2023-04-26T04:41:42;98601.66;;;0.74;100.00
10474;BME280;5284;50.446;7.904;2023-04-26T04:46:50;98600.19;;;0.87;100.00
10474;BME280;5284;50.446;7.904;2023-04-26T04:51:54;98609.69;;;0.90;100.00
10474;BME280;5284;50.446;7.904;2023-04-26T04:56:59;98616.28;;;0.98;100.00
10474;BME280;5284;50.446;7.904;2023-04-26T05:02:04;98612.59;;;1.02;100.00
10474;BME280;5284;50.446;7.904;2023-04-26T05:07:08;98620.81;;;1.13;100.00
10474;BME280;5284;50.446;7.904;2023-04-26T05:12:14;98623.19;;;1.19;100.00
10474;BME280;5284;50.446;7.904;2023-04-26T05:17:17;98621.81;;;1.29;100.00
10474;BME280;5284;50.446;7.904;2023-04-26T05:22:20;98635.25;;;1.42;100.00
10474;BME280;5284;50.446;7.904;2023-04-26T05:27:27;98633.38;;;1.62;100.00
10474;BME280;5284;50.446;7.904;2023-04-26T05:32:47;98633.31;;;1.80;100.00
10474;BME280;5284;50.446;7.904;2023-04-26T05:38:06;98634.50;;;2.09;100.00
10474;BME280;5284;50.446;7.904;2023-04-26T05:43:11;98639.53;;;2.30;100.00
10474;BME280;5284;50.446;7.904;2023-04-26T05:48:15;98641.97;;;2.67;100.00
10474;BME280;5284;50.446;7.904;2023-04-26T05:53:19;98653.66;;;3.11;100.00
10474;BME280;5284;50.446;7.904;2023-04-26T05:58:26;98654.13;;;3.50;100.00
10474;BME280;5284;50.446;7.904;2023-04-26T06:03:29;98656.47;;;4.01;100.00
10474;BME280;5284;50.446;7.904;2023-04-26T06:08:35;98660.97;;;4.44;100.00
10474;BME280;5284;50.446;7.904;2023-04-26T06:13:41;98671.94;;;5.09;100.00
10474;BME280;5284;50.446;7.904;2023-04-26T06:18:45;98660.69;;;5.33;100.00
10474;BME280;5284;50.446;7.904;2023-04-26T06:23:48;98661.81;;;5.57;100.00
10474;BME280;5284;50.446;7.904;2023-04-26T06:28:55;98663.09;;;5.64;100.00
10474;BME280;5284;50.446;7.904;2023-04-26T06:33:58;98668.38;;;6.18;100.00
10474;BME280;5284;50.446;7.904;2023-04-26T06:39:01;98654.88;;;6.35;100.00
10474;BME280;5284;50.446;7.904;2023-04-26T06:44:07;98659.81;;;6.79;100.00
10474;BME280;5284;50.446;7.904;2023-04-26T06:49:15;98670.47;;;7.16;99.43
10474;BME280;5284;50.446;7.904;2023-04-26T06:54:20;98679.81;;;7.34;96.62
10474;BME280;5284;50.446;7.904;2023-04-26T06:59:25;98673.63;;;7.46;94.80
10474;BME280;5284;50.446;7.904;2023-04-26T07:04:28;98680.91;;;7.67;91.95
10474;BME280;5284;50.446;7.904;2023-04-26T07:09:33;98677.13;;;7.95;86.34
10474;BME280;5284;50.446;7.904;2023-04-26T07:14:37;98673.91;;;8.02;87.68
10474;BME280;5284;50.446;7.904;2023-04-26T07:19:43;98675.78;;;8.25;84.71
10474;BME280;5284;50.446;7.904;2023-04-26T07:24:46;98672.91;;;7.92;84.02
10474;BME280;5284;50.446;7.904;2023-04-26T07:29:53;98674.38;;;7.96;81.63
10474;BME280;5284;50.446;7.904;2023-04-26T07:34:57;98668.75;;;7.88;83.15
10474;BME280;5284;50.446;7.904;2023-04-26T07:40:00;98663.41;;;8.71;77.52
10474;BME280;5284;50.446;7.904;2023-04-26T07:45:10;98659.44;;;9.22;80.56
10474;BME280;5284;50.446;7.904;2023-04-26T07:50:15;98665.31;;;9.04;77.44
10474;BME280;5284;50.446;7.904;2023-04-26T07:55:18;98656.78;;;8.77;77.62
10474;BME280;5284;50.446;7.904;2023-04-26T08:00:24;98660.59;;;9.18;75.11
10474;BME280;5284;50.446;7.904;2023-04-26T08:05:27;98666.19;;;9.92;70.08
10474;BME280;5284;50.446;7.904;2023-04-26T08:10:30;98667.78;;;9.72;70.01
10474;BME280;5284;50.446;7.904;2023-04-26T08:15:35;98662.31;;;9.52;72.54
10474;BME280;5284;50.446;7.904;2023-04-26T08:20:37;98658.69;;;9.42;67.08
10474;BME280;5284;50.446;7.904;2023-04-26T08:25:40;98670.41;;;9.28;62.68
10474;BME280;5284;50.446;7.904;2023-04-26T08:30:44;98668.25;;;9.77;62.97
10474;BME280;5284;50.446;7.904;2023-04-26T08:35:47;98655.03;;;9.98;61.44
10474;BME280;5284;50.446;7.904;2023-04-26T08:40:50;98657.56;;;10.53;62.29
10474;BME280;5284;50.446;7.904;2023-04-26T08:45:57;98661.88;;;10.33;61.07
10474;BME280;5284;50.446;7.904;2023-04-26T08:51:00;98665.22;;;10.04;61.13
10474;BME280;5284;50.446;7.904;2023-04-26T08:56:07;98665.88;;;10.39;58.96
10474;BME280;5284;50.446;7.904;2023-04-26T09:01:17;98665.41;;;10.85;57.12
10474;BME280;5284;50.446;7.904;2023-04-26T09:06:22;98652.13;;;10.74;55.15
10474;BME280;5284;50.446;7.904;2023-04-26T09:11:26;98649.56;;;10.53;54.47
10474;BME280;5284;50.446;7.904;2023-04-26T09:16:36;98650.53;;;10.52;56.47
10474;BME280;5284;50.446;7.904;2023-04-26T09:21:42;98650.41;;;10.22;56.90
10474;BME280;5284;50.446;7.904;2023-04-26T09:27:59;98638.78;;;10.54;54.52
10474;BME280;5284;50.446;7.904;2023-04-26T09:33:03;98635.38;;;11.34;56.40
10474;BME280;5284;50.446;7.904;2023-04-26T09:38:11;98632.47;;;11.16;55.74
10474;BME280;5284;50.446;7.904;2023-04-26T09:43:15;98637.97;;;10.94;56.01
10474;BME280;5284;50.446;7.904;2023-04-26T09:48:22;98639.25;;;10.59;53.76
10474;BME280;5284;50.446;7.904;2023-04-26T09:53:29;98637.72;;;10.46;54.34
10474;BME280;5284;50.446;7.904;2023-04-26T09:58:33;98639.41;;;10.47;56.18
10474;BME280;5284;50.446;7.904;2023-04-26T10:03:38;98629.34;;;10.50;52.76
10474;BME280;5284;50.446;7.904;2023-04-26T10:08:43;98634.38;;;11.25;53.81
10474;BME280;5284;50.446;7.904;2023-04-26T10:13:49;98627.16;;;11.46;52.84
10474;BME280;5284;50.446;7.904;2023-04-26T10:18:54;98620.38;;;11.12;50.79
10474;BME280;5284;50.446;7.904;2023-04-26T10:24:00;98619.59;;;11.51;52.65
10474;BME280;5284;50.446;7.904;2023-04-26T10:29:03;98599.50;;;11.87;51.54
10474;BME280;5284;50.446;7.904;2023-04-26T10:34:20;98608.41;;;12.06;50.08
10474;BME280;5284;50.446;7.904;2023-04-26T10:39:24;98602.97;;;11.68;49.83
10474;BME280;5284;50.446;7.904;2023-04-26T10:44:46;98608.00;;;12.11;49.98
10474;BME280;5284;50.446;7.904;2023-04-26T10:49:51;98594.38;;;12.61;49.42
10474;BME280;5284;50.446;7.904;2023-04-26T10:54:57;98586.88;;;12.74;49.50
10474;BME280;5284;50.446;7.904;2023-04-26T11:00:17;98586.41;;;13.53;47.15
10474;BME280;5284;50.446;7.904;2023-04-26T11:05:34;98589.38;;;13.59;47.76
10474;BME280;5284;50.446;7.904;2023-04-26T11:10:40;98578.47;;;13.87;48.87
10474;BME280;5284;50.446;7.904;2023-04-26T11:15:45;98579.81;;;13.11;47.01
10474;BME280;5284;50.446;7.904;2023-04-26T11:20:54;98578.00;;;13.02;46.73
10474;BME280;5284;50.446;7.904;2023-04-26T11:25:57;98570.34;;;13.16;46.33
10474;BME280;5284;50.446;7.904;2023-04-26T11:31:01;98577.31;;;13.00;46.90
10474;BME280;5284;50.446;7.904;2023-04-26T11:36:07;98581.47;;;13.84;47.90
10474;BME280;5284;50.446;7.904;2023-04-26T11:41:10;98565.63;;;11.97;49.95
10474;BME280;5284;50.446;7.904;2023-04-26T11:46:13;98566.06;;;13.86;47.62
10474;BME280;5284;50.446;7.904;2023-04-26T11:51:18;98567.41;;;14.87;43.97
10474;BME280;5284;50.446;7.904;2023-04-26T11:56:24;98558.13;;;15.50;46.89
10474;BME280;5284;50.446;7.904;2023-04-26T12:01:29;98555.09;;;16.91;42.84
10474;BME280;5284;50.446;7.904;2023-04-26T12:06:41;98560.47;;;16.52;41.32
10474;BME280;5284;50.446;7.904;2023-04-26T12:11:47;98558.72;;;16.27;42.36
10474;BME280;5284;50.446;7.904;2023-04-26T12:16:51;98555.25;;;15.85;42.47
10474;BME280;5284;50.446;7.904;2023-04-26T12:21:56;98549.63;;;16.28;42.50
10474;BME280;5284;50.446;7.904;2023-04-26T12:27:01;98549.72;;;16.68;40.10
10474;BME280;5284;50.446;7.904;2023-04-26T12:32:05;98558.66;;;15.53;41.32
10474;BME280;5284;50.446;7.904;2023-04-26T12:37:10;98554.38;;;15.18;41.31
10474;BME280;5284;50.446;7.904;2023-04-26T12:42:12;98543.59;;;15.35;41.43
10474;BME280;5284;50.446;7.904;2023-04-26T12:47:15;98550.31;;;14.88;41.42
10474;BME280;5284;50.446;7.904;2023-04-26T12:52:21;98539.09;;;15.18;43.49
10474;BME280;5284;50.446;7.904;2023-04-26T12:57:25;98543.75;;;13.95;42.99
10474;BME280;5284;50.446;7.904;2023-04-26T13:02:27;98539.06;;;15.10;42.97
10474;BME280;5284;50.446;7.904;2023-04-26T13:07:33;98546.75;;;15.31;45.02
10474;BME280;5284;50.446;7.904;2023-04-26T13:12:37;98552.41;;;16.52;41.91
10474;BME280;5284;50.446;7.904;2023-04-26T13:17:40;98549.22;;;19.39;39.31
10474;BME280;5284;50.446;7.904;2023-04-26T13:22:48;98546.97;;;22.49;36.49
10474;BME280;5284;50.446;7.904;2023-04-26T13:27:52;98545.34;;;23.71;35.87
10474;BME280;5284;50.446;7.904;2023-04-26T13:32:57;98551.19;;;21.77;36.46
10474;BME280;5284;50.446;7.904;2023-04-26T13:38:02;98533.94;;;20.60;35.76
10474;BME280;5284;50.446;7.904;2023-04-26T13:43:05;98532.88;;;19.76;35.58
10474;BME280;5284;50.446;7.904;2023-04-26T13:48:08;98532.25;;;19.08;36.78
10474;BME280;5284;50.446;7.904;2023-04-26T13:53:13;98527.56;;;18.88;36.38
10474;BME280;5284;50.446;7.904;2023-04-26T13:58:17;98521.13;;;18.89;37.03
10474;BME280;5284;50.446;7.904;2023-04-26T14:03:19;98527.47;;;18.06;36.77
10474;BME280;5284;50.446;7.904;2023-04-26T14:08:25;98518.88;;;17.72;37.58
10474;BME280;5284;50.446;7.904;2023-04-26T14:13:29;98510.00;;;16.78;38.47
10474;BME280;5284;50.446;7.904;2023-04-26T14:18:32;98504.81;;;17.30;39.27
10474;BME280;5284;50.446;7.904;2023-04-26T14:23:37;98509.66;;;22.36;34.34
10474;BME280;5284;50.446;7.904;2023-04-26T14:28:40;98509.22;;;25.07;32.75
10474;BME280;5284;50.446;7.904;2023-04-26T14:33:43;98511.84;;;26.59;28.28
10474;BME280;5284;50.446;7.904;2023-04-26T14:38:49;98513.09;;;30.00;27.02
10474;BME280;5284;50.446;7.904;2023-04-26T14:43:52;98509.88;;;29.87;27.60
10474;BME280;5284;50.446;7.904;2023-04-26T14:48:55;98510.50;;;30.32;24.68
10474;BME280;5284;50.446;7.904;2023-04-26T14:53:59;98506.81;;;32.31;25.54
10474;BME280;5284;50.446;7.904;2023-04-26T14:59:03;98503.44;;;32.19;24.05
10474;BME280;5284;50.446;7.904;2023-04-26T15:04:07;98499.53;;;28.67;26.34
10474;BME280;5284;50.446;7.904;2023-04-26T15:09:11;98503.84;;;32.53;24.42
10474;BME280;5284;50.446;7.904;2023-04-26T15:14:14;98507.34;;;34.04;22.52
10474;BME280;5284;50.446;7.904;2023-04-26T15:19:17;98509.88;;;33.71;23.44
10474;BME280;5284;50.446;7.904;2023-04-26T15:24:22;98508.75;;;33.97;21.57
10474;BME280;5284;50.446;7.904;2023-04-26T15:29:25;98515.97;;;33.88;23.66
10474;BME280;5284;50.446;7.904;2023-04-26T15:34:29;98524.69;;;35.80;23.06
10474;BME280;5284;50.446;7.904;2023-04-26T15:39:41;98516.75;;;37.27;21.11
10474;BME280;5284;50.446;7.904;2023-04-26T15:44:45;98493.88;;;28.07;25.10
10474;BME280;5284;50.446;7.904;2023-04-26T15:49:50;98489.50;;;27.48;27.05
10474;BME280;5284;50.446;7.904;2023-04-26T15:54:57;98494.31;;;32.90;21.82
10474;BME280;5284;50.446;7.904;2023-04-26T16:00:01;98503.97;;;35.67;22.21
10474;BME280;5284;50.446;7.904;2023-04-26T16:05:08;98503.56;;;36.77;21.32
10474;BME280;5284;50.446;7.904;2023-04-26T16:10:13;98503.50;;;33.30;21.13
10474;BME280;5284;50.446;7.904;2023-04-26T16:15:16;98500.06;;;35.68;20.97
10474;BME280;5284;50.446;7.904;2023-04-26T16:20:19;98499.44;;;35.76;20.57
10474;BME280;5284;50.446;7.904;2023-04-26T16:25:24;98493.56;;;34.68;21.71
10474;BME280;5284;50.446;7.904;2023-04-26T16:30:28;98481.63;;;35.77;20.86
10474;BME280;5284;50.446;7.904;2023-04-26T16:35:30;98481.16;;;34.45;20.84
10474;BME280;5284;50.446;7.904;2023-04-26T16:40:35;98476.91;;;34.68;21.62
10474;BME280;5284;50.446;7.904;2023-04-26T16:45:38;98468.84;;;34.03;22.02
10474;BME280;5284;50.446;7.904;2023-04-26T16:50:41;98466.94;;;29.48;24.00
10474;BME280;5284;50.446;7.904;2023-04-26T16:55:45;98471.16;;;26.44;25.92
10474;BME280;5284;50.446;7.904;2023-04-26T17:00:48;98468.28;;;23.57;28.92
10474;BME280;5284;50.446;7.904;2023-04-26T17:05:51;98467.50;;;22.73;29.88
10474;BME280;5284;50.446;7.904;2023-04-26T17:10:57;98472.88;;;21.80;31.07
10474;BME280;5284;50.446;7.904;2023-04-26T17:16:00;98476.97;;;21.02;32.47
10474;BME280;5284;50.446;7.904;2023-04-26T17:21:03;98475.00;;;19.92;33.30
10474;BME280;5284;50.446;7.904;2023-04-26T17:26:08;98466.31;;;18.95;34.58
10474;BME280;5284;50.446;7.904;2023-04-26T17:31:12;98476.09;;;17.92;35.54
10474;BME280;5284;50.446;7.904;2023-04-26T17:36:15;98469.53;;;17.01;37.06
10474;BME280;5284;50.446;7.904;2023-04-26T17:41:20;98479.84;;;16.42;37.59
10474;BME280;5284;50.446;7.904;2023-04-26T17:46:24;98489.44;;;15.63;38.38
10474;BME280;5284;50.446;7.904;2023-04-26T17:51:28;98485.94;;;14.79;39.90
10474;BME280;5284;50.446;7.904;2023-04-26T17:56:32;98498.31;;;14.46;40.05
10474;BME280;5284;50.446;7.904;2023-04-26T18:01:35;98502.81;;;13.93;41.19
10474;BME280;5284;50.446;7.904;2023-04-26T18:06:38;98499.38;;;13.57;41.47
10474;BME280;5284;50.446;7.904;2023-04-26T18:11:42;98497.41;;;13.05;42.57
10474;BME280;5284;50.446;7.904;2023-04-26T18:16:50;98506.91;;;12.71;43.88
10474;BME280;5284;50.446;7.904;2023-04-26T18:21:53;98511.44;;;12.23;44.96
10474;BME280;5284;50.446;7.904;2023-04-26T18:26:57;98506.53;;;11.81;47.00
10474;BME280;5284;50.446;7.904;2023-04-26T18:32:00;98514.97;;;11.37;49.01
10474;BME280;5284;50.446;7.904;2023-04-26T18:37:04;98515.09;;;10.96;49.93
10474;BME280;5284;50.446;7.904;2023-04-26T18:42:08;98522.28;;;10.55;53.55
10474;BME280;5284;50.446;7.904;2023-04-26T18:47:11;98526.72;;;10.24;55.29
10474;BME280;5284;50.446;7.904;2023-04-26T18:52:13;98526.25;;;9.88;55.63
10474;BME280;5284;50.446;7.904;2023-04-26T18:57:18;98532.84;;;9.62;56.07
10474;BME280;5284;50.446;7.904;2023-04-26T19:02:23;98544.38;;;9.40;56.31
10474;BME280;5284;50.446;7.904;2023-04-26T19:07:26;98550.69;;;9.17;58.13
10474;BME280;5284;50.446;7.904;2023-04-26T19:12:32;98559.03;;;9.02;58.56
10474;BME280;5284;50.446;7.904;2023-04-26T19:17:35;98564.94;;;8.95;57.59
10474;BME280;5284;50.446;7.904;2023-04-26T19:22:38;98563.97;;;8.74;64.93
10474;BME280;5284;50.446;7.904;2023-04-26T19:27:43;98572.03;;;8.61;67.27
10474;BME280;5284;50.446;7.904;2023-04-26T19:32:46;98563.28;;;8.48;72.30
10474;BME280;5284;50.446;7.904;2023-04-26T19:37:50;98570.59;;;8.23;76.68
10474;BME280;5284;50.446;7.904;2023-04-26T19:42:54;98583.22;;;7.96;82.20
10474;BME280;5284;50.446;7.904;2023-04-26T19:47:58;98578.16;;;7.93;82.45
10474;BME280;5284;50.446;7.904;2023-04-26T19:53:01;98583.06;;;7.86;83.42
10474;BME280;5284;50.446;7.904;2023-04-26T19:58:08;98576.38;;;7.57;87.53
10474;BME280;5284;50.446;7.904;2023-04-26T20:03:12;98582.28;;;7.38;89.81
10474;BME280;5284;50.446;7.904;2023-04-26T20:08:15;98596.19;;;7.29;89.44
10474;BME280;5284;50.446;7.904;2023-04-26T20:13:20;98598.19;;;7.25;92.01
10474;BME280;5284;50.446;7.904;2023-04-26T20:18:23;98597.31;;;7.01;91.98
10474;BME280;5284;50.446;7.904;2023-04-26T20:23:26;98600.03;;;6.87;95.62
10474;BME280;5284;50.446;7.904;2023-04-26T20:28:30;98600.78;;;6.77;97.53
10474;BME280;5284;50.446;7.904;2023-04-26T20:33:34;98590.31;;;6.88;93.31
10474;BME280;5284;50.446;7.904;2023-04-26T20:38:37;98601.53;;;6.79;97.52
10474;BME280;5284;50.446;7.904;2023-04-26T20:43:41;98594.53;;;6.78;97.37
10474;BME280;5284;50.446;7.904;2023-04-26T20:48:45;98594.13;;;6.71;99.01
10474;BME280;5284;50.446;7.904;2023-04-26T20:53:48;98600.69;;;6.66;100.00
10474;BME280;5284;50.446;7.904;2023-04-26T20:58:52;98604.28;;;6.65;100.00
10474;BME280;5284;50.446;7.904;2023-04-26T21:03:55;98604.19;;;6.54;100.00
10474;BME280;5284;50.446;7.904;2023-04-26T21:08:58;98596.22;;;6.54;100.00
10474;BME280;5284;50.446;7.904;2023-04-26T21:14:03;98603.19;;;6.42;100.00
10474;BME280;5284;50.446;7.904;2023-04-26T21:19:07;98598.53;;;6.46;100.00
10474;BME280;5284;50.446;7.904;2023-04-26T21:24:12;98600.84;;;6.38;100.00
10474;BME280;5284;50.446;7.904;2023-04-26T21:29:16;98597.38;;;6.37;100.00
10474;BME280;5284;50.446;7.904;2023-04-26T21:34:19;98598.53;;;6.33;100.00
10474;BME280;5284;50.446;7.904;2023-04-26T21:39:22;98600.63;;;6.28;100.00
10474;BME280;5284;50.446;7.904;2023-04-26T21:44:26;98601.88;;;6.23;100.00
10474;BME280;5284;50.446;7.904;2023-04-26T21:49:29;98607.19;;;6.23;100.00
10474;BME280;5284;50.446;7.904;2023-04-26T21:54:32;98614.19;;;6.24;100.00
10474;BME280;5284;50.446;7.904;2023-04-26T21:59:37;98611.81;;;6.19;100.00
10474;BME280;5284;50.446;7.904;2023-04-26T22:04:42;98617.03;;;6.21;100.00
10474;BME280;5284;50.446;7.904;2023-04-26T22:09:45;98619.22;;;6.14;100.00
10474;BME280;5284;50.446;7.904;2023-04-26T22:14:50;98628.03;;;6.15;100.00
10474;BME280;5284;50.446;7.904;2023-04-26T22:19:53;98630.84;;;6.12;100.00
10474;BME280;5284;50.446;7.904;2023-04-26T22:24:57;98634.78;;;6.06;100.00
10474;BME280;5284;50.446;7.904;2023-04-26T22:30:01;98642.72;;;6.06;100.00
10474;BME280;5284;50.446;7.904;2023-04-26T22:35:21;98642.06;;;6.03;100.00
10474;BME280;5284;50.446;7.904;2023-04-26T22:40:24;98643.94;;;6.01;100.00
10474;BME280;5284;50.446;7.904;2023-04-26T22:45:28;98644.00;;;5.87;100.00
10474;BME280;5284;50.446;7.904;2023-04-26T22:50:31;98646.84;;;5.84;100.00
10474;BME280;5284;50.446;7.904;2023-04-26T22:55:34;98644.97;;;5.86;100.00
10474;BME280;5284;50.446;7.904;2023-04-26T23:00:38;98649.69;;;5.81;100.00
10474;BME280;5284;50.446;7.904;2023-04-26T23:05:41;98644.88;;;5.74;100.00
10474;BME280;5284;50.446;7.904;2023-04-26T23:10:44;98642.50;;;5.69;100.00
10474;BME280;5284;50.446;7.904;2023-04-26T23:15:48;98647.25;;;5.64;100.00
10474;BME280;5284;50.446;7.904;2023-04-26T23:20:51;98637.06;;;5.58;100.00
10474;BME280;5284;50.446;7.904;2023-04-26T23:25:54;98638.28;;;5.53;100.00
10474;BME280;5284;50.446;7.904;2023-04-26T23:30:58;98639.63;;;5.46;100.00
10474;BME280;5284;50.446;7.904;2023-04-26T23:36:01;98644.44;;;5.39;100.00
10474;BME280;5284;50.446;7.904;2023-04-26T23:41:04;98646.25;;;5.25;100.00
10474;BME280;5284;50.446;7.904;2023-04-26T23:46:08;98644.16;;;5.16;100.00
10474;BME280;5284;50.446;7.904;2023-04-26T23:51:11;98647.00;;;5.13;100.00
10474;BME280;5284;50.446;7.904;2023-04-26T23:56:14;98647.66;;;5.02;100.00
